Terminal Aerodrome Forecast
Issued by NWS Boston, MA

Home | Current Version | Previous Version | Text Only | Print | Product List | Glossary On
Versions: 1 2 3 4 5 6 7 8 9 10 11 12 13 14 15 16 17 18 19 20 21 22 23
000
FTUS41 KBOX 122128 AAC
TAFORH
TAF AMD
KORH 122128Z 1221/1318 03005KT 1/2SM FG VCSH VV002
     FM122300 34005KT 1/2SM FG OVC003
     FM130100 27007KT P6SM BKN010
     FM130200 28008G19KT P6SM BKN025
     FM130300 28009G23KT P6SM BKN040
     FM131500 28017G29KT P6SM BKN035=

USA.gov is the U.S. government's official web portal to all federal, state and local government web resources and services.